Terminal Aerodrome Forecast
Issued by NWS

Home | Current Version | Previous Version | Text Only | Print | Product List | Glossary Off
Versions: 1 2 3 4 5 6 7 8 9 10 11 12 13 14 15 16 17 18

802
FTUS43 KGRB 222332
TAFATW
TAF
KATW 222332Z 2300/2324 04006KT P6SM SCT015 BKN040
      TEMPO 2300/2304 BKN025
     FM230500 03011KT P6SM VCSH BKN015 BKN025
     FM231800 06009KT P6SM OVC025
     FM231900 06008KT P6SM BKN030=

USA.gov is the U.S. government's official web portal to all federal, state and local government web resources and services.